Terminal Aerodrome Forecast
Issued by NWS

Current Version | Previous Version | Text Only | Print | Product List | Glossary On
Versions: 1 2 3 4 5 6 7 8 9 10 11 12 13 14 15 16 17 18 19 20 21 22 23 24 25 26 27 28 29 30 31 32 33 34 35 36 37
000
FTUS41 KRNK 261135
TAFLWB
TAF
KLWB 261135Z 2612/2712 00000KT P6SM SCT090
     FM261700 25006KT P6SM SCT060
     FM270400 27005KT P6SM BKN060
     FM271000 27006KT P6SM -SHRA VCTS BKN030CB=

USA.gov is the U.S. government's official web portal to all federal, state and local government web resources and services.